Time;durP1;ratioP1;P1;durP2;ratioP2;P2;SDS_P1;SDS_P2;PMS_P1;PMS_P2;Temp;Humidity;BMP_temperature;BMP_pressure;BME280_temperature;BME280_humidity;BME280_pressure;Samples;Min_cycle;Max_cycle;Signal;HPM_P1;HPM_P2
2024/04/14 00:01:50;;;;;;;0.35;0.35;;;;;;;10.01;81.25;100390.72;4410209;32;42013;-71
2024/04/14 00:04:18;;;;;;;1.52;1.42;;;;;;;10.00;81.16;100377.97;4410453;32;42066;-70
2024/04/14 00:06:45;;;;;;;2.00;0.98;;;;;;;10.01;81.26;100373.22;4410189;32;41630;-71
2024/04/14 00:09:13;;;;;;;1.00;0.70;;;;;;;10.01;81.05;100374.03;4410267;32;41870;-71
2024/04/14 00:11:41;;;;;;;0.82;0.82;;;;;;;10.02;81.06;100377.62;4410136;32;42357;-72
2024/04/14 00:14:10;;;;;;;1.85;1.75;;;;;;;10.02;81.22;100369.25;4410240;32;42055;-71
2024/04/14 00:16:38;;;;;;;0.95;0.95;;;;;;;10.03;81.01;100371.69;4397158;32;40284;-70
2024/04/14 00:19:06;;;;;;;0.35;0.35;;;;;;;10.03;81.19;100360.56;4411587;32;42356;-70
2024/04/14 00:21:33;;;;;;;1.45;0.90;;;;;;;10.00;80.97;100355.69;4400011;32;40616;-70
2024/04/14 00:24:02;;;;;;;0.80;0.65;;;;;;;10.02;81.04;100361.72;4412935;32;42183;-69
2024/04/14 00:26:29;;;;;;;0.10;0.10;;;;;;;10.02;81.20;100358.94;4397143;32;40190;-69
2024/04/14 00:28:59;;;;;;;0.87;0.63;;;;;;;9.98;81.28;100355.22;4397782;32;42092;-69
2024/04/14 00:31:27;;;;;;;3.30;1.90;;;;;;;9.98;81.64;100357.19;4397940;32;41788;-71
2024/04/14 00:33:56;;;;;;;0.30;0.30;;;;;;;9.96;82.02;100354.75;4397714;32;42223;-71
2024/04/14 00:36:23;;;;;;;0.75;0.75;;;;;;;9.94;82.50;100351.50;4397782;32;42072;-68
2024/04/14 00:38:51;;;;;;;0.30;0.30;;;;;;;9.94;82.68;100357.06;4397640;32;42151;-71
2024/04/14 00:41:18;;;;;;;1.50;1.23;;;;;;;9.91;83.15;100341.06;4397579;32;42359;-69
2024/04/14 00:43:46;;;;;;;0.15;0.15;;;;;;;9.87;83.49;100340.94;4397763;32;42013;-69
2024/04/14 00:46:14;;;;;;;1.45;0.55;;;;;;;9.84;83.70;100338.03;4397434;32;41714;-70
2024/04/14 00:48:44;;;;;;;0.88;0.65;;;;;;;9.81;83.81;100330.38;4397590;32;41897;-70
2024/04/14 00:51:13;;;;;;;0.20;0.20;;;;;;;9.81;83.76;100341.50;4397655;32;41873;-71
2024/04/14 00:53:40;;;;;;;0.10;0.10;;;;;;;9.81;83.70;100335.94;4397654;32;42053;-71
2024/04/14 00:56:09;;;;;;;0.10;0.10;;;;;;;9.78;83.90;100331.87;4397466;32;41897;-71
2024/04/14 00:58:37;;;;;;;0.10;0.10;;;;;;;9.80;84.18;100335.13;4397711;32;41893;-71
2024/04/14 01:01:06;;;;;;;0.20;0.20;;;;;;;9.81;84.40;100336.75;4397497;32;42094;-70
2024/04/14 01:03:33;;;;;;;0.10;0.10;;;;;;;9.82;84.76;100337.56;4397505;32;42108;-70
2024/04/14 01:06:03;;;;;;;0.30;0.30;;;;;;;9.81;84.99;100335.94;4396873;32;41358;-71
2024/04/14 01:08:30;;;;;;;;;;;;;;;9.78;85.57;100336.63;4398039;32;41389;-72
2024/04/14 01:10:58;;;;;;;0.10;0.10;;;;;;;9.62;87.20;100327.34;4397491;32;42390;-69
2024/04/14 01:13:25;;;;;;;0.68;0.68;;;;;;;9.58;88.76;100324.44;4397438;32;42047;-70
2024/04/14 01:15:54;;;;;;;0.57;0.55;;;;;;;9.44;90.14;100316.41;4397504;32;42202;-72
2024/04/14 01:18:21;;;;;;;0.57;0.57;;;;;;;9.34;91.10;100316.81;4397619;32;42093;-70
2024/04/14 01:20:50;;;;;;;0.68;0.68;;;;;;;9.26;91.71;100309.38;4397404;32;41914;-71
2024/04/14 01:23:18;;;;;;;0.43;0.43;;;;;;;9.22;92.23;100305.66;4397294;32;42340;-70
2024/04/14 01:25:48;;;;;;;0.20;0.20;;;;;;;9.20;92.85;100305.19;4406817;32;42009;-72
2024/04/14 01:28:16;;;;;;;;;;;;;;;9.20;93.65;100307.94;4412429;32;41767;-70
2024/04/14 01:30:44;;;;;;;0.10;0.10;;;;;;;9.10;94.17;100300.84;4411819;32;42137;-69
2024/04/14 01:33:12;;;;;;;0.20;0.20;;;;;;;9.11;94.50;100296.09;4412398;32;42283;-71
2024/04/14 01:35:40;;;;;;;0.20;0.20;;;;;;;9.08;95.04;100299.59;4412661;32;42197;-70
2024/04/14 01:38:07;;;;;;;0.10;0.10;;;;;;;9.04;95.37;100290.31;4412702;32;41541;-72
2024/04/14 01:40:36;;;;;;;0.10;0.10;;;;;;;9.04;95.70;100293.09;4412489;32;42203;-70
2024/04/14 01:43:05;;;;;;;0.35;0.35;;;;;;;9.03;95.95;100288.69;4399125;32;41373;-70
2024/04/14 01:45:33;;;;;;;0.20;0.20;;;;;;;9.05;96.06;100286.38;4412583;32;41994;-72
2024/04/14 01:48:01;;;;;;;0.20;0.20;;;;;;;9.02;96.15;100281.50;4412615;32;42407;-74
2024/04/14 01:50:29;;;;;;;0.10;0.10;;;;;;;9.02;96.40;100281.50;4412462;32;42577;-74
2024/04/14 01:52:56;;;;;;;0.10;0.10;;;;;;;9.02;96.57;100270.38;4412510;32;41801;-72
2024/04/14 01:55:24;;;;;;;0.10;0.10;;;;;;;8.98;97.03;100269.44;4412288;32;41995;-71
2024/04/14 01:57:53;;;;;;;0.10;0.10;;;;;;;8.98;97.68;100263.87;4412255;32;41655;-72
2024/04/14 02:00:23;;;;;;;0.10;0.10;;;;;;;8.97;98.16;100262.25;4412560;32;42225;-73
2024/04/14 02:02:52;;;;;;;0.10;0.10;;;;;;;8.97;98.35;100256.69;4412450;32;41969;-73
2024/04/14 02:05:20;;;;;;;1.45;0.57;;;;;;;8.95;98.54;100257.03;4412380;32;41630;-69
2024/04/14 02:07:47;;;;;;;0.10;0.10;;;;;;;8.96;98.51;100255.06;4412042;32;42060;-74
2024/04/14 02:10:15;;;;;;;0.20;0.20;;;;;;;8.96;98.57;100249.53;4412071;32;42183;-73
2024/04/14 02:12:43;;;;;;;0.20;0.20;;;;;;;8.96;98.17;100249.53;4411777;32;42121;-73
2024/04/14 02:15:10;;;;;;;0.10;0.10;;;;;;;8.98;98.23;100252.78;4411803;32;41947;-73
2024/04/14 02:17:40;;;;;;;0.10;0.10;;;;;;;9.03;97.76;100244.22;4412311;32;41947;-73
2024/04/14 02:20:10;;;;;;;1.20;0.50;;;;;;;9.01;97.30;100240.97;4411637;32;42277;-73
2024/04/14 02:22:38;;;;;;;0.10;0.10;;;;;;;9.03;97.12;100227.56;4412592;32;42323;-71
2024/04/14 02:25:06;;;;;;;0.10;0.10;;;;;;;9.03;96.93;100238.66;4399567;32;40814;-73
2024/04/14 02:27:34;;;;;;;0.10;0.10;;;;;;;9.04;96.54;100229.19;4412689;32;42052;-71
2024/04/14 02:30:01;;;;;;;0.10;0.10;;;;;;;9.04;96.53;100223.63;4412856;32;42270;-73
2024/04/14 02:32:30;;;;;;;0.10;0.10;;;;;;;9.06;96.29;100229.66;4412196;32;42101;-73
2024/04/14 02:34:58;;;;;;;0.10;0.10;;;;;;;9.07;96.48;100212.63;4412555;32;42131;-73
2024/04/14 02:37:26;;;;;;;0.10;0.10;;;;;;;9.10;96.23;100205.59;4413819;32;41846;-72
2024/04/14 02:39:54;;;;;;;0.20;0.20;;;;;;;9.12;95.92;100211.59;4414020;32;41952;-72
2024/04/14 02:42:23;;;;;;;0.85;0.65;;;;;;;9.11;95.77;100207.19;4411956;32;41660;-74
2024/04/14 02:44:53;;;;;;;0.73;0.73;;;;;;;9.12;95.81;100203.25;4412244;32;42276;-73
2024/04/14 02:47:24;;;;;;;0.10;0.10;;;;;;;9.14;95.78;100200.94;4412103;32;41677;-73
2024/04/14 02:49:51;;;;;;;0.22;0.22;;;;;;;9.16;95.48;100193.06;4411790;32;41949;-74
2024/04/14 02:52:21;;;;;;;0.57;0.57;;;;;;;9.17;95.06;100189.13;4412572;32;42290;-75
2024/04/14 02:54:49;;;;;;;0.10;0.10;;;;;;;9.16;95.04;100195.84;4411697;32;42173;-73
2024/04/14 02:57:17;;;;;;;0.10;0.10;;;;;;;9.19;94.72;100181.25;4411635;32;42187;-73
2024/04/14 02:59:44;;;;;;;0.10;0.10;;;;;;;9.23;94.74;100187.75;4411497;32;41789;-73
2024/04/14 03:02:12;;;;;;;0.10;0.10;;;;;;;9.28;94.57;100187.53;4411759;32;42038;-71
2024/04/14 03:04:40;;;;;;;0.10;0.10;;;;;;;9.31;94.24;100184.06;4411877;32;42050;-77
2024/04/14 03:07:08;;;;;;;0.10;0.10;;;;;;;9.35;93.83;100185.00;4410971;32;42142;-73
2024/04/14 03:09:37;;;;;;;9.32;0.57;;;;;;;9.37;93.72;100193.81;4410980;32;42218;-73
2024/04/14 03:12:06;;;;;;;0.98;0.62;;;;;;;9.40;93.56;100182.00;4410915;32;41997;-72
2024/04/14 03:14:33;;;;;;;0.10;0.10;;;;;;;9.45;93.39;100173.44;4411088;32;42249;-72
2024/04/14 03:17:03;;;;;;;0.20;0.20;;;;;;;9.48;93.02;100172.75;4411003;32;42199;-74
2024/04/14 03:19:30;;;;;;;0.10;0.10;;;;;;;9.48;92.83;100178.31;4411022;32;41755;-72
2024/04/14 03:21:58;;;;;;;0.37;0.37;;;;;;;9.47;92.84;100176.69;4411091;32;42295;-72
2024/04/14 03:24:25;;;;;;;0.10;0.10;;;;;;;9.43;92.79;100164.62;4410653;32;42134;-71
2024/04/14 03:26:58;;;;;;;0.15;0.15;;;;;;;9.40;93.03;100159.75;4410972;32;41851;-73
2024/04/14 03:29:25;;;;;;;0.10;0.10;;;;;;;9.41;93.33;100158.59;4397993;32;40267;-72
2024/04/14 03:31:53;;;;;;;0.00;0.00;;;;;;;9.46;93.24;100158.38;4411214;32;42390;-72
2024/04/14 03:34:21;;;;;;;0.10;0.10;;;;;;;9.46;93.15;100161.16;4411084;32;42284;-71
2024/04/14 03:36:49;;;;;;;0.32;0.32;;;;;;;9.47;93.21;100153.63;4411099;32;41938;-72
2024/04/14 03:39:20;;;;;;;0.75;0.75;;;;;;;9.52;93.12;100150.62;4410918;32;42228;-72
2024/04/14 03:41:51;;;;;;;0.10;0.10;;;;;;;9.52;92.79;100151.44;4398184;32;40383;-71
2024/04/14 03:44:21;;;;;;;0.90;0.45;;;;;;;9.56;92.87;100157.94;4411077;32;42164;-74
2024/04/14 03:46:52;;;;;;;0.50;0.50;;;;;;;9.62;92.59;100149.34;4410815;32;42294;-73
2024/04/14 03:49:22;;;;;;;0.30;0.20;;;;;;;9.65;92.41;100137.53;4410443;32;42395;-72
2024/04/14 03:51:50;;;;;;;0.55;0.20;;;;;;;9.67;92.01;100146.34;4410787;32;42124;-72
2024/04/14 03:54:19;;;;;;;0.28;0.28;;;;;;;9.68;92.02;100148.78;4399664;32;40408;-73
2024/04/14 03:56:46;;;;;;;0.10;0.10;;;;;;;9.67;91.65;100157.47;4413688;32;42292;-71
2024/04/14 03:59:15;;;;;;;0.20;0.20;;;;;;;9.66;91.60;100148.31;4413581;32;42505;-71
2024/04/14 04:01:43;;;;;;;0.10;0.10;;;;;;;9.65;91.36;100143.09;4413561;32;41877;-71
2024/04/14 04:04:12;;;;;;;0.77;0.77;;;;;;;9.68;91.41;100134.88;4413100;32;42335;-71
2024/04/14 04:06:39;;;;;;;0.20;0.20;;;;;;;9.72;91.06;100137.75;4413555;32;42091;-73
2024/04/14 04:09:10;;;;;;;0.10;0.10;;;;;;;9.73;91.12;100136.59;4413413;32;42308;-71
2024/04/14 04:11:37;;;;;;;0.10;0.10;;;;;;;9.78;90.90;100136.34;4413626;32;42092;-71
2024/04/14 04:14:05;;;;;;;0.10;0.10;;;;;;;9.78;90.30;100126.03;4413469;32;41967;-71
2024/04/14 04:16:32;;;;;;;1.15;0.73;;;;;;;9.77;90.07;100129.16;4413179;32;41846;-70
2024/04/14 04:19:02;;;;;;;1.85;0.60;;;;;;;9.76;90.05;100131.13;4413849;32;42287;-72
2024/04/14 04:21:30;;;;;;;1.90;0.32;;;;;;;9.74;90.16;100130.69;4413915;32;42016;-71
2024/04/14 04:23:58;;;;;;;0.10;0.10;;;;;;;9.76;90.17;100122.78;4413220;32;42313;-69
2024/04/14 04:26:25;;;;;;;1.17;1.17;;;;;;;9.79;90.05;100115.72;4413137;32;41697;-73
2024/04/14 04:28:53;;;;;;;0.77;0.77;;;;;;;9.80;89.75;100114.53;4411919;32;42014;-71
2024/04/14 04:31:20;;;;;;;0.62;0.62;;;;;;;9.84;89.87;100112.69;4413125;32;41844;-72
2024/04/14 04:33:49;;;;;;;0.90;0.90;;;;;;;9.88;89.57;100111.63;4413037;32;41711;-71
2024/04/14 04:36:18;;;;;;;0.45;0.37;;;;;;;9.91;89.42;100107.34;4412857;32;42203;-71
2024/04/14 04:38:46;;;;;;;0.20;0.20;;;;;;;9.93;89.42;100102.25;4412821;32;42234;-69
2024/04/14 04:41:13;;;;;;;0.40;0.40;;;;;;;9.93;89.06;100099.47;4412563;32;42286;-69
2024/04/14 04:43:42;;;;;;;0.75;0.75;;;;;;;9.88;88.88;100096.91;4412531;32;41831;-72
2024/04/14 04:46:09;;;;;;;4.12;1.10;;;;;;;9.85;89.00;100097.63;4412592;32;42072;-70
2024/04/14 04:48:38;;;;;;;0.35;0.35;;;;;;;9.82;88.99;100093.56;4412637;32;41927;-71
2024/04/14 04:51:05;;;;;;;0.37;0.37;;;;;;;9.82;89.09;100089.97;4412676;32;42478;-70
2024/04/14 04:53:35;;;;;;;0.85;0.85;;;;;;;9.86;89.16;100091.69;4412799;32;42117;-74
2024/04/14 04:56:02;;;;;;;1.45;1.35;;;;;;;9.91;88.81;100080.34;4411929;32;42048;-71
2024/04/14 04:58:30;;;;;;;0.37;0.37;;;;;;;9.98;88.72;100084.50;4411827;32;42193;-71
2024/04/14 05:00:57;;;;;;;0.75;0.75;;;;;;;10.00;88.16;100094.13;4397563;32;41823;-70
2024/04/14 05:03:26;;;;;;;2.85;0.98;;;;;;;10.02;88.12;100091.78;4384526;32;42179;-71
2024/04/14 05:05:55;;;;;;;0.10;0.10;;;;;;;10.01;87.78;100095.72;4397344;32;42003;-70
2024/04/14 05:08:23;;;;;;;0.37;0.37;;;;;;;10.00;87.75;100105.25;4384169;32;40193;-70
2024/04/14 05:10:53;;;;;;;0.20;0.20;;;;;;;10.01;87.72;100101.28;4396982;32;41729;-72
2024/04/14 05:13:21;;;;;;;0.82;0.82;;;;;;;10.01;87.48;100095.72;4397281;32;41827;-70
2024/04/14 05:15:49;;;;;;;0.73;0.47;;;;;;;10.04;87.37;100089.47;4397238;32;41933;-71
2024/04/14 05:18:18;;;;;;;0.25;0.25;;;;;;;10.03;87.11;100082.28;4397087;32;41819;-71
2024/04/14 05:20:45;;;;;;;1.75;0.65;;;;;;;10.07;87.30;100083.19;4397034;32;42263;-73
2024/04/14 05:23:14;;;;;;;0.45;0.45;;;;;;;10.13;86.82;100086.53;4384330;32;40087;-72
2024/04/14 05:25:41;;;;;;;0.15;0.15;;;;;;;10.15;86.63;100089.78;4396706;32;41841;-71
2024/04/14 05:28:11;;;;;;;0.30;0.30;;;;;;;10.18;86.40;100084.31;4396745;32;42118;-72
2024/04/14 05:30:39;;;;;;;1.17;0.82;;;;;;;10.21;86.23;100088.41;4396862;32;42119;-71
2024/04/14 05:33:08;;;;;;;0.30;0.30;;;;;;;10.23;85.86;100086.88;4396821;32;42207;-71
2024/04/14 05:35:35;;;;;;;0.95;0.95;;;;;;;10.27;85.77;100086.19;4396834;32;42267;-71
2024/04/14 05:38:03;;;;;;;0.25;0.20;;;;;;;10.30;85.63;100091.03;4396820;32;42122;-70
2024/04/14 05:40:30;;;;;;;1.70;1.60;;;;;;;10.30;85.24;100088.25;4396586;32;41926;-71
2024/04/14 05:42:58;;;;;;;0.20;0.20;;;;;;;10.28;85.09;100076.66;4396559;32;42184;-71
2024/04/14 05:45:28;;;;;;;0.95;0.95;;;;;;;10.26;85.14;100067.84;4396494;32;42381;-71
2024/04/14 05:47:56;;;;;;;0.37;0.37;;;;;;;10.27;85.13;100069.47;4396613;32;41565;-71
2024/04/14 05:50:24;;;;;;;0.37;0.30;;;;;;;10.32;85.07;100060.87;4396535;32;41693;-70
2024/04/14 05:52:52;;;;;;;0.45;0.45;;;;;;;10.38;84.93;100059.47;4396424;32;42101;-70
2024/04/14 05:55:19;;;;;;;0.20;0.20;;;;;;;10.43;84.67;100053.59;4396304;32;42614;-71
2024/04/14 05:57:47;;;;;;;0.40;0.40;;;;;;;10.53;84.64;100045.53;4396366;32;42276;-70
2024/04/14 06:00:14;;;;;;;0.20;0.20;;;;;;;10.66;84.35;100049.06;4396342;32;42183;-74
2024/04/14 06:02:45;;;;;;;0.17;0.17;;;;;;;10.75;83.86;100044.16;4396343;32;42174;-72
2024/04/14 06:05:13;;;;;;;6.03;0.70;;;;;;;10.84;83.44;100039.22;4396388;32;42277;-72
2024/04/14 06:07:41;;;;;;;1.40;1.30;;;;;;;10.96;83.23;100041.13;4396404;32;41758;-72
2024/04/14 06:10:08;;;;;;;0.40;0.40;;;;;;;11.06;82.80;100048.09;4396350;32;41920;-72
2024/04/14 06:12:36;;;;;;;0.28;0.28;;;;;;;11.04;81.54;100040.13;4383327;32;40135;-73
2024/04/14 06:15:05;;;;;;;0.45;0.45;;;;;;;11.00;81.42;100041.22;4383320;32;40552;-72
2024/04/14 06:17:33;;;;;;;0.82;0.82;;;;;;;10.94;81.50;100043.44;4395846;32;41934;-72
2024/04/14 06:20:02;;;;;;;0.50;0.50;;;;;;;10.87;81.73;100030.13;4396087;32;41878;-71
2024/04/14 06:22:31;;;;;;;0.85;0.85;;;;;;;10.89;81.60;100027.81;4396065;32;41610;-73
2024/04/14 06:24:58;;;;;;;0.13;0.13;;;;;;;10.94;81.56;100037.06;4395775;32;42416;-70
2024/04/14 06:27:26;;;;;;;0.25;0.25;;;;;;;11.00;81.75;100030.06;4395937;32;42137;-71
2024/04/14 06:29:53;;;;;;;0.17;0.17;;;;;;;11.08;81.60;100024.28;4396011;32;41893;-72
2024/04/14 06:32:24;;;;;;;1.75;1.65;;;;;;;11.17;81.03;100018.50;4396017;32;41689;-70
2024/04/14 06:34:51;;;;;;;1.95;1.75;;;;;;;11.24;80.26;100018.69;4383113;32;42011;-70
2024/04/14 06:37:20;;;;;;;0.57;0.43;;;;;;;11.25;79.51;100020.31;4395897;32;42098;-70
2024/04/14 06:39:48;;;;;;;0.10;0.10;;;;;;;11.25;79.69;100011.94;4395990;32;41876;-71
2024/04/14 06:42:16;;;;;;;1.25;1.10;;;;;;;11.29;79.54;100015.62;4395841;32;42180;-70
2024/04/14 06:44:43;;;;;;;0.68;0.68;;;;;;;11.25;78.98;100011.94;4395890;32;42076;-69
2024/04/14 06:47:11;;;;;;;0.13;0.13;;;;;;;11.23;79.31;100011.50;4395971;32;42291;-71
2024/04/14 06:49:38;;;;;;;0.30;0.30;;;;;;;11.31;79.28;100013.28;4395724;32;42140;-71
2024/04/14 06:52:07;;;;;;;0.20;0.20;;;;;;;11.40;78.97;100002.75;4395437;32;41796;-70
2024/04/14 06:54:36;;;;;;;0.10;0.10;;;;;;;11.46;77.84;100008.84;4395350;32;41621;-71
2024/04/14 06:57:05;;;;;;;0.53;0.53;;;;;;;11.51;78.06;99997.41;4395240;32;42097;-70
2024/04/14 06:59:32;;;;;;;0.10;0.10;;;;;;;11.58;77.29;99999.56;4395303;32;42258;-70
2024/04/14 07:02:00;;;;;;;1.83;0.57;;;;;;;11.60;76.78;99991.63;4395414;32;42182;-71
2024/04/14 07:04:27;;;;;;;0.55;0.55;;;;;;;11.65;76.79;99982.97;4395242;32;41914;-72
2024/04/14 07:06:56;;;;;;;0.52;0.52;;;;;;;11.69;76.43;99978.28;4382294;32;42054;-71
2024/04/14 07:09:23;;;;;;;0.10;0.10;;;;;;;11.77;76.56;99982.84;4396243;32;42297;-70
2024/04/14 07:11:53;;;;;;;0.22;0.22;;;;;;;11.82;76.29;99971.37;4395126;32;42334;-72
2024/04/14 07:14:20;;;;;;;1.15;1.08;;;;;;;11.75;75.55;99960.03;4395211;32;42089;-73
2024/04/14 07:16:49;;;;;;;1.45;0.77;;;;;;;11.82;75.66;99965.81;4382481;32;40524;-73
2024/04/14 07:19:16;;;;;;;0.10;0.10;;;;;;;11.79;74.95;99958.16;4395351;32;42254;-71
2024/04/14 07:21:44;;;;;;;0.73;0.73;;;;;;;11.76;75.39;99959.69;4395402;32;41812;-72
2024/04/14 07:24:12;;;;;;;0.10;0.10;;;;;;;11.83;75.46;99956.25;4394988;32;42439;-71
2024/04/14 07:26:40;;;;;;;1.15;1.10;;;;;;;11.93;75.31;99955.66;4395041;32;42115;-72
2024/04/14 07:29:09;;;;;;;1.80;1.65;;;;;;;12.05;75.04;99947.16;4394596;32;42351;-72
2024/04/14 07:31:37;;;;;;;0.20;0.20;;;;;;;12.13;74.17;99948.91;4395193;32;42254;-70
2024/04/14 07:34:04;;;;;;;0.10;0.10;;;;;;;12.19;74.18;99947.44;4395210;32;41945;-72
2024/04/14 07:36:32;;;;;;;0.65;0.65;;;;;;;12.28;73.98;99935.22;4395022;32;42196;-72
2024/04/14 07:39:00;;;;;;;0.40;0.40;;;;;;;12.37;73.64;99930.16;4395045;32;41804;-74
2024/04/14 07:41:29;;;;;;;0.10;0.10;;;;;;;12.35;73.26;99927.75;4395230;32;42151;-72
2024/04/14 07:44:05;;;;;;;0.15;0.15;;;;;;;12.39;73.29;99927.81;4382159;32;40411;-73
2024/04/14 07:46:35;;;;;;;0.20;0.17;;;;;;;12.42;72.78;99921.47;4394801;32;41569;-72
2024/04/14 07:49:02;;;;;;;0.25;0.25;;;;;;;12.40;72.28;99918.25;4394961;32;41979;-72
2024/04/14 07:51:31;;;;;;;0.20;0.20;;;;;;;12.41;72.39;99914.28;4394956;32;42117;-72
2024/04/14 07:53:58;;;;;;;0.62;0.62;;;;;;;12.40;71.94;99912.66;4394790;32;41893;-73
2024/04/14 07:56:26;;;;;;;0.20;0.20;;;;;;;12.30;71.85;99913.31;4395007;32;42227;-71
2024/04/14 07:58:53;;;;;;;0.20;0.20;;;;;;;12.25;72.49;99911.63;4394873;32;42130;-72
2024/04/14 08:01:22;;;;;;;1.17;1.00;;;;;;;12.37;72.57;99905.03;4395014;32;41865;-70
2024/04/14 08:03:51;;;;;;;0.83;0.83;;;;;;;12.51;71.71;99903.28;4394846;32;42158;-73
2024/04/14 08:06:19;;;;;;;0.20;0.20;;;;;;;12.66;71.39;99898.75;4394919;32;42365;-72
2024/04/14 08:08:49;;;;;;;0.40;0.35;;;;;;;12.91;71.16;99898.34;4395054;32;41871;-73
2024/04/14 08:11:17;;;;;;;0.10;0.10;;;;;;;13.05;70.16;99895.75;4382145;32;40170;-73
2024/04/14 08:13:45;;;;;;;0.10;0.10;;;;;;;13.08;69.58;99894.97;4395756;32;42325;-73
2024/04/14 08:16:13;;;;;;;0.10;0.10;;;;;;;13.11;69.66;99894.22;4395515;32;41477;-76
2024/04/14 08:18:40;;;;;;;0.70;0.70;;;;;;;13.02;68.81;99899.28;4394959;32;42121;-70
2024/04/14 08:21:10;;;;;;;1.00;0.50;;;;;;;12.89;69.45;99889.53;4395832;32;41933;-72
2024/04/14 08:23:37;;;;;;;;;;;;;;;12.73;69.24;99884.91;4396439;32;41591;-71
2024/04/14 08:26:06;;;;;;;0.05;0.05;;;;;;;12.58;69.61;99891.44;4394554;32;42341;-73
2024/04/14 08:28:34;;;;;;;0.10;0.10;;;;;;;12.54;69.53;99884.97;4394418;32;42321;-71
2024/04/14 08:31:02;;;;;;;0.10;0.10;;;;;;;12.46;70.06;99883.25;4394946;32;42484;-70
2024/04/14 08:33:30;;;;;;;0.13;0.13;;;;;;;12.39;70.54;99883.91;4394725;32;42028;-71
2024/04/14 08:35:58;;;;;;;0.40;0.40;;;;;;;12.35;70.19;99885.06;4394778;32;42061;-71
2024/04/14 08:38:26;;;;;;;0.00;0.00;;;;;;;12.29;70.55;99880.97;4381423;32;41462;-73
2024/04/14 08:40:55;;;;;;;0.77;0.60;;;;;;;12.35;70.68;99880.25;4397059;32;42152;-73
2024/04/14 08:43:23;;;;;;;0.57;0.57;;;;;;;12.51;70.32;99882.94;4397376;32;42124;-71
2024/04/14 08:45:52;;;;;;;0.10;0.10;;;;;;;12.69;69.50;99875.66;4396869;32;41958;-72
2024/04/14 08:48:20;;;;;;;0.25;0.22;;;;;;;12.93;69.08;99877.22;4396978;32;42115;-72
2024/04/14 08:50:49;;;;;;;0.20;0.20;;;;;;;13.00;68.16;99868.12;4397264;32;41844;-71
2024/04/14 08:53:18;;;;;;;0.20;0.20;;;;;;;12.99;67.89;99867.31;4384233;32;41551;-73
2024/04/14 08:55:48;;;;;;;0.08;0.08;;;;;;;12.91;67.90;99859.22;4397140;32;41863;-71
2024/04/14 08:58:16;;;;;;;0.20;0.20;;;;;;;12.74;67.55;99866.13;4397166;32;41859;-71
2024/04/14 09:00:45;;;;;;;0.10;0.10;;;;;;;12.60;68.04;99860.31;4396782;32;42002;-73
2024/04/14 09:03:13;;;;;;;0.10;0.10;;;;;;;12.58;68.10;99857.91;4396694;32;41878;-72
2024/04/14 09:05:43;;;;;;;0.10;0.10;;;;;;;12.64;67.55;99855.59;4396775;32;42227;-72
2024/04/14 09:08:10;;;;;;;0.10;0.10;;;;;;;12.75;67.25;99846.19;4396588;32;42174;-72
2024/04/14 09:10:39;;;;;;;0.10;0.10;;;;;;;12.85;66.73;99845.56;4383856;32;40636;-74
2024/04/14 09:13:08;;;;;;;0.05;0.05;;;;;;;12.92;66.25;99836.47;4396672;32;42324;-72
2024/04/14 09:15:40;;;;;;;0.15;0.15;;;;;;;12.96;66.24;99828.13;4396295;32;42216;-72
2024/04/14 09:18:08;;;;;;;0.57;0.57;;;;;;;13.00;65.78;99838.16;4396816;32;41778;-73
2024/04/14 09:20:36;;;;;;;0.40;0.40;;;;;;;13.05;65.60;99825.84;4396828;32;41791;-72
2024/04/14 09:23:03;;;;;;;0.10;0.10;;;;;;;13.09;65.20;99823.91;4396890;32;42127;-73
2024/04/14 09:25:33;;;;;;;2.45;0.77;;;;;;;13.23;65.33;99820.50;4396632;32;42149;-75
2024/04/14 09:28:01;;;;;;;0.13;0.13;;;;;;;13.32;65.10;99824.63;4383894;32;41920;-74
2024/04/14 09:30:31;;;;;;;0.20;0.20;;;;;;;13.40;65.26;99819.94;4396697;32;41840;-72
2024/04/14 09:32:59;;;;;;;0.35;0.35;;;;;;;13.35;64.59;99823.06;4396866;32;42146;-73
2024/04/14 09:35:27;;;;;;;0.20;0.20;;;;;;;13.24;64.47;99817.34;4396963;32;42451;-73
2024/04/14 09:37:55;;;;;;;0.10;0.10;;;;;;;12.95;64.78;99785.38;4396626;32;41980;-74
2024/04/14 09:40:24;;;;;;;0.52;0.30;;;;;;;13.07;65.20;99809.50;4395963;32;42083;-71
2024/04/14 09:42:55;;;;;;;0.00;0.00;;;;;;;13.07;65.38;99795.50;4396332;32;42256;-70
2024/04/14 09:45:24;;;;;;;1.17;0.45;;;;;;;13.15;65.66;99797.22;4396306;32;42257;-72
2024/04/14 09:47:55;;;;;;;0.20;0.20;;;;;;;13.20;64.98;99794.13;4396629;32;42214;-71
2024/04/14 09:50:25;;;;;;;0.10;0.10;;;;;;;13.14;65.02;99790.00;4396072;32;42130;-73
2024/04/14 09:52:52;;;;;;;0.30;0.30;;;;;;;13.02;64.66;99781.84;4395900;32;42106;-71
2024/04/14 09:55:21;;;;;;;0.80;0.75;;;;;;;12.72;65.24;99756.72;4396265;32;42040;-72
2024/04/14 09:57:48;;;;;;;0.40;0.40;;;;;;;12.81;65.26;99777.63;4396409;32;42386;-71
2024/04/14 10:00:17;;;;;;;1.23;1.00;;;;;;;12.78;65.15;99778.38;4396117;32;41675;-70
2024/04/14 10:02:50;;;;;;;0.17;0.17;;;;;;;12.81;64.98;99772.03;4395984;32;42364;-70
2024/04/14 10:05:23;;;;;;;0.55;0.55;;;;;;;12.88;65.29;99764.91;4396289;32;42346;-72
2024/04/14 10:07:50;;;;;;;0.30;0.30;;;;;;;12.86;64.88;99754.94;4396114;32;42272;-71
2024/04/14 10:10:19;;;;;;;0.20;0.20;;;;;;;12.97;64.29;99766.25;4395867;32;42584;-72
2024/04/14 10:12:47;;;;;;;0.10;0.10;;;;;;;12.90;64.29;99756.97;4395824;32;41943;-71
2024/04/14 10:15:16;;;;;;;0.10;0.10;;;;;;;12.83;64.31;99763.25;4395859;32;42038;-72
2024/04/14 10:17:45;;;;;;;0.00;0.00;;;;;;;12.81;63.58;99760.84;4396121;32;42028;-70
2024/04/14 10:20:15;;;;;;;0.43;0.30;;;;;;;12.79;63.79;99760.41;4396087;32;42161;-71
2024/04/14 10:22:46;;;;;;;0.35;0.35;;;;;;;12.81;64.17;99755.25;4396094;32;42089;-72
2024/04/14 10:25:22;;;;;;;0.10;0.10;;;;;;;12.81;63.90;99752.47;4395758;32;42040;-73
2024/04/14 10:27:49;;;;;;;0.75;0.20;;;;;;;12.82;63.90;99748.47;4395881;32;42118;-72
2024/04/14 10:30:22;;;;;;;0.25;0.25;;;;;;;12.88;63.72;99748.16;4395855;32;41979;-71
2024/04/14 10:33:02;;;;;;;0.10;0.10;;;;;;;12.88;63.74;99745.34;4395667;32;42154;-72
2024/04/14 10:35:29;;;;;;;0.22;0.22;;;;;;;12.85;63.84;99742.13;4395719;32;41860;-73
2024/04/14 10:37:59;;;;;;;0.22;0.22;;;;;;;12.83;63.47;99738.91;4395565;32;42366;-72
2024/04/14 10:40:26;;;;;;;0.17;0.17;;;;;;;12.73;63.61;99725.59;4395658;32;42072;-72
2024/04/14 10:42:54;;;;;;;3.17;0.50;;;;;;;12.69;63.75;99724.75;4395810;32;41782;-70
2024/04/14 10:45:25;;;;;;;0.08;0.08;;;;;;;12.77;63.89;99736.81;4395664;32;42240;-70
2024/04/14 10:47:56;;;;;;;0.03;0.03;;;;;;;12.85;62.91;99721.75;4395464;32;42183;-71
2024/04/14 10:50:25;;;;;;;0.30;0.30;;;;;;;12.89;62.73;99724.59;4395541;32;41904;-70
2024/04/14 10:52:53;;;;;;;0.00;0.00;;;;;;;12.93;63.12;99722.66;4395361;32;42181;-71
2024/04/14 10:55:21;;;;;;;1.55;1.10;;;;;;;12.99;63.30;99701.56;4395453;32;42190;-70
2024/04/14 10:57:50;;;;;;;0.00;0.00;;;;;;;13.06;63.34;99707.22;4395584;32;42143;-69
2024/04/14 11:00:18;;;;;;;0.20;0.20;;;;;;;13.07;63.60;99708.81;4395352;32;42149;-71
2024/04/14 11:02:46;;;;;;;0.22;0.22;;;;;;;13.11;63.76;99701.28;4382222;32;42249;-72
2024/04/14 11:05:14;;;;;;;0.00;0.00;;;;;;;13.18;63.19;99695.81;4395525;32;42058;-71
2024/04/14 11:07:42;;;;;;;0.17;0.17;;;;;;;13.21;63.14;99683.84;4395110;32;42180;-72
2024/04/14 11:10:11;;;;;;;0.35;0.35;;;;;;;13.26;62.56;99686.31;4395317;32;41725;-71
2024/04/14 11:12:43;;;;;;;0.43;0.43;;;;;;;13.30;62.25;99681.56;4395132;32;41718;-71
2024/04/14 11:15:10;;;;;;;2.28;0.62;;;;;;;13.32;62.17;99668.00;4395639;32;42362;-72
2024/04/14 11:17:38;;;;;;;0.40;0.40;;;;;;;13.41;61.83;99667.69;4395242;32;41713;-71
2024/04/14 11:20:06;;;;;;;0.00;0.00;;;;;;;13.52;61.72;99666.59;4395118;32;42169;-71
2024/04/14 11:22:36;;;;;;;0.43;0.43;;;;;;;13.67;61.37;99661.09;4395212;32;41809;-72
2024/04/14 11:25:03;;;;;;;0.37;0.37;;;;;;;13.84;61.18;99660.44;4395224;32;41960;-71
2024/04/14 11:27:31;;;;;;;0.10;0.10;;;;;;;13.97;61.00;99647.75;4395067;32;42169;-71
2024/04/14 11:30:00;;;;;;;0.60;0.40;;;;;;;14.04;60.71;99635.78;4395299;32;42201;-70
2024/04/14 11:32:33;;;;;;;0.55;0.55;;;;;;;13.99;60.50;99636.97;4394930;32;42242;-70
2024/04/14 11:35:05;;;;;;;0.10;0.10;;;;;;;13.88;60.36;99632.47;4394571;32;42456;-73
2024/04/14 11:37:35;;;;;;;0.45;0.45;;;;;;;13.71;60.75;99633.94;4394913;32;42156;-71